Time;durP1;ratioP1;P1;durP2;ratioP2;P2;SDS_P1;SDS_P2;PMS_P1;PMS_P2;Temp;Humidity;BMP_temperature;BMP_pressure;BME280_temperature;BME280_humidity;BME280_pressure;Samples;Min_cycle;Max_cycle;Signal;HPM_P1;HPM_P2
2022/02/20 00:01:09;;;;;;;12.65;4.18;;;;;;;8.00;78.52;100206.84;4978994;28;20051;-84
2022/02/20 00:03:36;;;;;;;14.30;4.65;;;;;;;8.04;78.40;100221.19;4979087;28;20051;-82
2022/02/20 00:06:03;;;;;;;12.40;4.97;;;;;;;8.03;78.77;100230.00;4977320;28;20057;-81
2022/02/20 00:08:30;;;;;;;14.57;4.70;;;;;;;8.02;79.18;100238.78;4979028;28;20050;-82
2022/02/20 00:10:59;;;;;;;12.27;4.78;;;;;;;7.99;79.42;100228.66;4979123;28;20198;-83
2022/02/20 00:13:26;;;;;;;15.68;3.92;;;;;;;7.99;79.46;100228.66;4962896;28;20135;-81
2022/02/20 00:15:54;;;;;;;17.02;4.35;;;;;;;7.98;80.02;100271.31;4961538;29;20470;-81
2022/02/20 00:18:20;;;;;;;18.20;6.28;;;;;;;7.92;80.13;100285.72;4960007;29;20054;-83
2022/02/20 00:20:49;;;;;;;14.38;4.40;;;;;;;7.83;79.85;100291.00;4959812;29;20138;-80
2022/02/20 00:23:16;;;;;;;12.10;4.97;;;;;;;7.71;80.21;100294.75;4966185;28;20051;-81
2022/02/20 00:25:44;;;;;;;14.18;4.20;;;;;;;7.68;79.22;100295.06;4978444;28;20383;-80
2022/02/20 00:28:10;;;;;;;15.18;4.22;;;;;;;7.65;77.48;100298.75;4977924;28;20129;-80
2022/02/20 00:30:37;;;;;;;6.68;3.90;;;;;;;7.57;77.09;100304.69;4978363;28;20127;-79
2022/02/20 00:33:05;;;;;;;11.23;3.72;;;;;;;7.47;76.63;100290.94;4978902;28;20094;-81
2022/02/20 00:35:34;;;;;;;6.68;3.13;;;;;;;7.50;74.57;100319.28;4978837;28;20130;-81
2022/02/20 00:38:01;;;;;;;8.55;3.22;;;;;;;7.41;74.86;100340.97;4978207;28;20039;-79
2022/02/20 00:40:28;;;;;;;12.00;4.07;;;;;;;7.29;75.20;100337.72;4978174;28;20244;-78
2022/02/20 00:42:55;;;;;;;8.23;3.30;;;;;;;7.19;74.69;100342.13;4974985;28;20137;-80
2022/02/20 00:45:22;;;;;;;7.80;3.58;;;;;;;7.10;74.91;100357.75;4979121;28;20114;-79
2022/02/20 00:47:48;;;;;;;7.30;2.90;;;;;;;7.03;74.50;100367.09;4978788;28;20057;-81
2022/02/20 00:50:16;;;;;;;7.90;3.03;;;;;;;6.95;74.64;100368.59;4978914;28;20055;-80
2022/02/20 00:52:43;;;;;;;8.02;3.40;;;;;;;6.92;73.99;100353.28;4979510;28;20133;-80
2022/02/20 00:55:10;;;;;;;6.15;3.25;;;;;;;6.90;74.36;100390.78;4978809;28;20078;-79
2022/02/20 00:57:37;;;;;;;11.13;3.58;;;;;;;6.91;74.03;100395.84;4972329;28;20043;-81
2022/02/20 01:00:07;;;;;;;7.20;3.45;;;;;;;6.83;74.48;100387.09;4982633;28;20187;-79
2022/02/20 01:02:33;;;;;;;9.23;3.22;;;;;;;6.87;74.26;100404.88;5001887;28;20078;-80
2022/02/20 01:05:00;;;;;;;11.45;4.18;;;;;;;6.75;75.08;100408.56;4990195;28;20548;-79
2022/02/20 01:07:28;;;;;;;9.35;3.65;;;;;;;6.65;75.23;100403.38;4990880;28;20054;-79
2022/02/20 01:09:55;;;;;;;9.05;4.20;;;;;;;6.71;75.09;100409.81;4979903;28;20054;-80
2022/02/20 01:12:21;;;;;;;8.25;3.47;;;;;;;6.66;75.16;100425.00;4978052;28;20532;-80
2022/02/20 01:14:48;;;;;;;6.35;3.67;;;;;;;6.58;75.36;100425.69;4977244;28;20101;-81
2022/02/20 01:17:15;;;;;;;8.00;4.20;;;;;;;6.54;75.85;100421.72;4978170;28;20078;-79
2022/02/20 01:19:42;;;;;;;10.10;4.10;;;;;;;6.49;75.94;100443.88;4977256;28;20062;-81
2022/02/20 01:22:09;;;;;;;7.63;4.05;;;;;;;6.42;75.92;100430.59;4977409;28;20057;-78
2022/02/20 01:24:37;;;;;;;11.20;4.10;;;;;;;6.35;76.66;100441.66;4978745;28;20051;-80
2022/02/20 01:27:04;;;;;;;6.65;3.97;;;;;;;6.33;76.27;100444.38;4979287;28;20485;-81
2022/02/20 01:29:31;;;;;;;12.02;4.53;;;;;;;6.33;76.31;100434.81;4978998;28;20117;-81
2022/02/20 01:31:58;;;;;;;10.15;4.70;;;;;;;6.26;76.64;100454.47;4978431;28;20425;-83
2022/02/20 01:34:24;;;;;;;9.50;4.28;;;;;;;6.16;76.96;100448.41;4979377;28;20082;-83
2022/02/20 01:36:51;;;;;;;11.85;4.70;;;;;;;6.16;76.54;100464.00;4981633;28;20046;-81
2022/02/20 01:39:18;;;;;;;9.88;4.75;;;;;;;6.14;77.13;100471.13;4982460;28;20086;-80
2022/02/20 01:41:46;;;;;;;10.00;4.57;;;;;;;6.08;76.88;100460.44;4983081;28;20110;-80
2022/02/20 01:44:12;;;;;;;10.10;4.88;;;;;;;6.08;76.94;100478.63;4983512;28;20498;-80
2022/02/20 01:46:39;;;;;;;12.90;4.85;;;;;;;6.03;77.16;100473.81;4982495;28;20114;-79
2022/02/20 01:49:06;;;;;;;9.68;4.85;;;;;;;6.09;76.04;100491.50;4983915;28;20149;-80
2022/02/20 01:51:32;;;;;;;10.95;4.97;;;;;;;6.05;76.72;100477.13;4984742;28;20506;-79
2022/02/20 01:54:02;;;;;;;14.20;5.40;;;;;;;5.98;76.87;100501.97;4985283;28;20501;-80
2022/02/20 01:56:28;;;;;;;10.68;5.32;;;;;;;5.91;76.63;100496.47;4985198;28;20123;-80
2022/02/20 01:58:57;;;;;;;10.05;4.78;;;;;;;5.83;77.22;100511.00;4984058;28;20047;-80
2022/02/20 02:01:24;;;;;;;13.95;5.60;;;;;;;5.71;78.65;100504.22;4984273;28;20089;-80
2022/02/20 02:03:50;;;;;;;10.85;5.88;;;;;;;5.63;79.54;100499.69;4984232;28;20046;-79
2022/02/20 02:06:17;;;;;;;14.80;6.03;;;;;;;5.57;79.77;100529.59;4980924;28;20074;-81
2022/02/20 02:08:44;;;;;;;10.80;6.63;;;;;;;5.55;80.07;100526.28;4982094;28;20110;-80
2022/02/20 02:11:12;;;;;;;11.32;6.53;;;;;;;5.45;81.03;100525.38;4981650;28;20046;-80
2022/02/20 02:13:40;;;;;;;17.23;6.80;;;;;;;5.38;81.29;100529.44;4981712;28;20051;-80
2022/02/20 02:16:08;;;;;;;9.45;6.28;;;;;;;5.25;82.11;100529.59;4981860;28;20137;-80
2022/02/20 02:18:36;;;;;;;13.68;6.72;;;;;;;5.21;81.59;100537.75;4981613;28;20138;-80
2022/02/20 02:21:03;;;;;;;15.07;6.78;;;;;;;5.19;81.76;100543.09;4983136;28;20061;-80
2022/02/20 02:23:31;;;;;;;12.95;6.78;;;;;;;5.12;82.53;100548.88;4981188;28;20101;-80
2022/02/20 02:25:57;;;;;;;10.60;6.22;;;;;;;5.07;82.13;100546.66;4982439;28;20078;-79
2022/02/20 02:28:24;;;;;;;15.63;6.95;;;;;;;5.00;81.75;100538.53;4964571;28;20571;-82
2022/02/20 02:30:51;;;;;;;12.85;6.80;;;;;;;5.00;82.32;100556.69;4981799;28;20051;-81
2022/02/20 02:33:28;;;;;;;16.13;7.05;;;;;;;4.96;81.75;100560.47;4981478;28;20117;-80
2022/02/20 02:35:54;;;;;;;12.48;7.22;;;;;;;4.90;82.63;100549.75;4980710;28;20051;-80
2022/02/20 02:38:26;;;;;;;16.67;7.50;;;;;;;4.85;82.20;100563.09;4982707;28;20047;-80
2022/02/20 02:40:55;;;;;;;14.63;7.38;;;;;;;4.73;83.16;100569.22;4980253;28;20051;-80
2022/02/20 02:43:21;;;;;;;14.63;7.40;;;;;;;4.71;83.54;100571.16;4980794;28;20505;-79
2022/02/20 02:45:48;;;;;;;16.15;7.13;;;;;;;4.70;82.73;100573.84;4980492;28;20054;-79
2022/02/20 02:48:15;;;;;;;17.15;8.25;;;;;;;4.64;83.61;100578.56;4980049;28;20043;-79
2022/02/20 02:50:41;;;;;;;14.00;7.55;;;;;;;4.60;83.84;100581.50;4980854;28;20081;-79
2022/02/20 02:53:08;;;;;;;15.30;8.57;;;;;;;4.60;83.21;100591.88;4980105;28;20066;-79
2022/02/20 02:55:35;;;;;;;14.68;8.95;;;;;;;4.53;83.35;100596.72;4979324;28;20399;-79
2022/02/20 02:58:04;;;;;;;14.23;8.32;;;;;;;4.49;83.88;100597.06;4979790;28;20058;-79
2022/02/20 03:00:33;;;;;;;16.65;8.23;;;;;;;4.41;84.37;100594.22;4979222;28;20089;-79
2022/02/20 03:03:00;;;;;;;13.75;8.43;;;;;;;4.36;84.48;100599.75;4979533;28;20085;-81
2022/02/20 03:05:27;;;;;;;17.50;7.35;;;;;;;4.32;84.37;100612.13;4980750;28;20133;-80
2022/02/20 03:07:54;;;;;;;19.92;8.02;;;;;;;4.26;85.36;100612.56;4979391;28;20047;-80
2022/02/20 03:10:20;;;;;;;14.52;7.93;;;;;;;4.28;84.15;100610.69;4980035;28;20118;-81
2022/02/20 03:12:47;;;;;;;17.83;8.95;;;;;;;4.25;85.06;100616.09;4979536;28;20050;-79
2022/02/20 03:15:15;;;;;;;17.45;8.43;;;;;;;4.18;84.93;100619.31;4978899;28;20078;-80
2022/02/20 03:17:42;;;;;;;12.77;8.20;;;;;;;4.15;85.35;100624.72;4979113;28;20473;-80
2022/02/20 03:20:09;;;;;;;14.38;8.25;;;;;;;4.11;85.15;100631.06;4978458;28;20051;-80
2022/02/20 03:22:36;;;;;;;22.15;9.40;;;;;;;3.99;85.76;100636.19;4978991;28;20046;-80
2022/02/20 03:25:03;;;;;;;12.38;8.27;;;;;;;3.99;85.34;100633.63;4979141;28;20141;-80
2022/02/20 03:27:29;;;;;;;22.00;9.02;;;;;;;3.93;86.12;100638.41;4978700;28;20210;-80
2022/02/20 03:29:56;;;;;;;22.42;9.05;;;;;;;3.97;85.96;100629.47;4978911;28;20053;-80
2022/02/20 03:32:24;;;;;;;18.52;9.77;;;;;;;3.96;85.85;100640.78;4978715;28;20089;-79
2022/02/20 03:34:50;;;;;;;17.30;9.20;;;;;;;3.91;85.98;100632.53;4978505;28;20054;-79
2022/02/20 03:37:17;;;;;;;20.73;9.57;;;;;;;3.89;86.22;100635.22;4978205;28;20082;-79
2022/02/20 03:39:44;;;;;;;13.77;8.65;;;;;;;3.82;86.85;100639.19;4978424;28;20090;-79
2022/02/20 03:42:10;;;;;;;18.10;8.93;;;;;;;3.81;87.03;100644.47;4978551;28;20149;-79
2022/02/20 03:44:38;;;;;;;18.92;9.05;;;;;;;3.80;86.98;100642.84;4978593;28;20059;-80
2022/02/20 03:47:05;;;;;;;16.25;9.10;;;;;;;3.63;87.33;100647.50;4978563;28;20055;-80
2022/02/20 03:49:33;;;;;;;13.77;8.82;;;;;;;3.61;88.19;100651.97;4978163;28;20089;-79
2022/02/20 03:52:00;;;;;;;15.30;9.60;;;;;;;3.65;87.89;100653.38;4977901;28;20058;-80
2022/02/20 03:54:26;;;;;;;16.17;9.43;;;;;;;3.65;87.91;100649.97;4978551;28;20462;-80
2022/02/20 03:56:53;;;;;;;15.95;9.27;;;;;;;3.60;88.09;100649.47;4977581;28;20054;-80
2022/02/20 03:59:20;;;;;;;12.75;9.20;;;;;;;3.47;88.30;100659.88;4968849;28;20128;-81
2022/02/20 04:01:46;;;;;;;17.42;9.13;;;;;;;3.49;88.63;100658.00;4977257;28;20059;-79
2022/02/20 04:04:13;;;;;;;17.48;9.25;;;;;;;3.33;89.44;100647.91;4979260;28;20054;-81
2022/02/20 04:06:41;;;;;;;16.30;9.20;;;;;;;3.22;89.70;100659.97;4979216;28;20491;-80
2022/02/20 04:09:08;;;;;;;16.80;9.60;;;;;;;3.15;90.07;100656.16;4979219;28;20047;-80
2022/02/20 04:11:34;;;;;;;19.63;10.65;;;;;;;3.12;90.43;100653.81;4979211;28;20050;-80
2022/02/20 04:14:01;;;;;;;23.15;11.27;;;;;;;3.06;91.00;100651.63;4978858;28;20069;-81
2022/02/20 04:16:27;;;;;;;22.52;14.10;;;;;;;2.99;90.84;100649.47;4979065;28;20073;-80
2022/02/20 04:18:54;;;;;;;22.98;11.60;;;;;;;3.00;90.75;100640.78;4978967;28;20112;-80
2022/02/20 04:21:21;;;;;;;21.75;11.20;;;;;;;2.97;90.81;100630.66;4980572;28;20047;-80
2022/02/20 04:23:49;;;;;;;23.50;11.02;;;;;;;2.94;91.38;100617.97;4980992;28;20060;-79
2022/02/20 04:26:15;;;;;;;18.73;10.30;;;;;;;2.92;90.99;100622.41;4979864;28;20133;-81
2022/02/20 04:28:42;;;;;;;20.10;10.63;;;;;;;2.88;91.39;100622.72;4976655;28;20110;-79
2022/02/20 04:31:09;;;;;;;20.83;11.30;;;;;;;2.87;91.21;100619.31;4977797;28;20433;-79
2022/02/20 04:33:35;;;;;;;17.00;10.70;;;;;;;2.86;91.40;100617.66;4977714;28;20090;-78
2022/02/20 04:36:02;;;;;;;17.55;10.50;;;;;;;2.86;91.07;100620.25;4977554;28;20086;-79
2022/02/20 04:38:28;;;;;;;19.15;10.48;;;;;;;2.81;91.47;100629.28;4976423;28;20047;-80
2022/02/20 04:40:56;;;;;;;18.80;10.15;;;;;;;2.84;91.35;100622.09;4977558;28;20137;-80
2022/02/20 04:43:23;;;;;;;21.65;9.55;;;;;;;2.81;91.59;100617.19;4976672;28;20060;-80
2022/02/20 04:45:50;;;;;;;15.38;8.68;;;;;;;2.83;91.17;100623.06;4977149;28;20082;-80
2022/02/20 04:48:16;;;;;;;15.95;8.90;;;;;;;2.79;91.68;100616.47;4976469;28;20046;-80
2022/02/20 04:50:43;;;;;;;17.80;9.57;;;;;;;2.88;91.60;100617.56;4977594;28;20086;-81
2022/02/20 04:53:09;;;;;;;18.73;8.80;;;;;;;2.88;91.26;100610.63;4977814;28;20139;-80
2022/02/20 04:55:36;;;;;;;20.00;10.48;;;;;;;2.99;90.67;100618.47;4977327;28;20070;-80
2022/02/20 04:58:04;;;;;;;19.42;9.13;;;;;;;3.02;90.52;100612.25;4977976;28;20160;-80
2022/02/20 05:00:31;;;;;;;13.95;9.13;;;;;;;3.05;90.55;100604.28;4978242;28;20141;-81
2022/02/20 05:02:58;;;;;;;21.73;8.98;;;;;;;3.06;90.44;100607.69;4977878;28;20050;-80
2022/02/20 05:05:24;;;;;;;18.45;8.10;;;;;;;3.11;90.53;100601.28;4976873;28;20055;-80
2022/02/20 05:07:51;;;;;;;19.42;9.02;;;;;;;3.19;90.58;100598.13;4977046;28;20106;-80
2022/02/20 05:10:18;;;;;;;17.48;7.97;;;;;;;3.19;89.92;100587.78;4977481;28;20101;-80
2022/02/20 05:12:44;;;;;;;16.88;8.40;;;;;;;3.21;90.03;100584.16;4981266;28;20058;-80
2022/02/20 05:15:12;;;;;;;17.40;8.90;;;;;;;3.17;90.62;100579.31;4979936;28;20051;-80
2022/02/20 05:17:39;;;;;;;13.85;7.22;;;;;;;3.30;90.69;100580.94;4980431;28;20142;-81
2022/02/20 05:20:08;;;;;;;13.15;8.15;;;;;;;3.41;90.35;100571.53;4980438;28;20050;-80
2022/02/20 05:22:34;;;;;;;18.25;8.38;;;;;;;3.47;90.71;100568.50;4981460;28;20055;-80
2022/02/20 05:25:01;;;;;;;14.90;8.75;;;;;;;3.46;90.36;100570.28;4980803;28;20479;-80
2022/02/20 05:27:31;;;;;;;21.60;7.93;;;;;;;3.49;90.79;100551.94;4981611;28;20072;-80
2022/02/20 05:29:57;;;;;;;14.93;8.15;;;;;;;3.56;90.79;100553.16;4980472;28;20077;-79
2022/02/20 05:32:25;;;;;;;12.82;7.07;;;;;;;3.61;91.00;100558.81;4981816;28;20118;-79
2022/02/20 05:34:53;;;;;;;17.85;8.00;;;;;;;3.63;90.78;100546.59;4981793;28;20137;-79
2022/02/20 05:37:20;;;;;;;16.88;7.10;;;;;;;3.70;90.50;100548.72;4981540;28;20125;-79
2022/02/20 05:39:46;;;;;;;18.42;7.47;;;;;;;3.75;90.76;100550.03;4980258;28;20106;-80
2022/02/20 05:42:13;;;;;;;18.60;7.95;;;;;;;3.78;90.80;100547.19;4981009;28;20054;-80
2022/02/20 05:44:39;;;;;;;18.60;7.20;;;;;;;3.84;90.91;100558.84;4981371;28;20082;-79
2022/02/20 05:47:06;;;;;;;15.60;6.85;;;;;;;3.90;90.85;100553.22;4982462;28;20479;-79
2022/02/20 05:49:34;;;;;;;17.60;6.13;;;;;;;3.94;90.52;100549.44;4979804;28;20134;-78
2022/02/20 05:52:01;;;;;;;13.60;6.35;;;;;;;4.03;90.80;100550.53;4978994;28;20573;-78
2022/02/20 05:54:27;;;;;;;19.40;6.32;;;;;;;4.07;90.73;100545.00;4980436;28;20465;-78
2022/02/20 05:56:55;;;;;;;16.48;6.60;;;;;;;4.08;90.70;100538.88;4979101;28;20061;-79
2022/02/20 05:59:21;;;;;;;15.75;6.25;;;;;;;4.10;90.57;100529.25;4988475;28;20039;-79
2022/02/20 06:01:48;;;;;;;17.00;6.72;;;;;;;4.23;90.81;100524.78;4996569;28;20082;-79
2022/02/20 06:04:14;;;;;;;12.98;6.35;;;;;;;4.19;90.92;100518.19;4996040;28;20449;-78
2022/02/20 06:06:42;;;;;;;16.27;6.15;;;;;;;4.24;90.66;100513.47;4991242;28;20109;-78
2022/02/20 06:09:09;;;;;;;13.27;6.75;;;;;;;4.26;90.78;100521.91;4981772;28;20097;-78
2022/02/20 06:11:36;;;;;;;16.67;5.38;;;;;;;4.26;90.76;100518.50;4980896;28;20059;-79
2022/02/20 06:14:03;;;;;;;15.27;6.05;;;;;;;4.38;91.78;100516.75;4980490;28;20074;-79
2022/02/20 06:16:30;;;;;;;18.40;6.25;;;;;;;4.40;91.41;100509.69;4979546;28;20054;-78
2022/02/20 06:18:56;;;;;;;17.55;6.15;;;;;;;4.30;91.82;100497.44;4980907;28;20070;-79
2022/02/20 06:21:23;;;;;;;11.38;5.32;;;;;;;4.35;92.20;100499.66;4982231;28;20126;-80
2022/02/20 06:23:51;;;;;;;15.88;6.20;;;;;;;4.28;92.66;100488.97;4981162;28;20134;-80
2022/02/20 06:26:17;;;;;;;12.20;6.47;;;;;;;4.30;93.56;100478.47;4980392;28;20129;-79
2022/02/20 06:28:44;;;;;;;18.88;6.07;;;;;;;4.31;93.29;100472.34;4979253;28;20094;-79
2022/02/20 06:31:11;;;;;;;16.10;6.07;;;;;;;4.42;93.54;100471.53;4981183;28;20073;-78
2022/02/20 06:33:37;;;;;;;19.70;6.28;;;;;;;4.51;93.29;100463.84;4982837;28;20137;-78
2022/02/20 06:36:04;;;;;;;18.83;6.22;;;;;;;4.52;93.81;100468.09;4981728;28;20138;-78
2022/02/20 06:38:31;;;;;;;18.45;6.22;;;;;;;4.56;93.73;100463.50;4981279;28;20047;-78
2022/02/20 06:40:59;;;;;;;16.85;5.93;;;;;;;4.58;94.06;100462.44;4982643;28;20485;-78
2022/02/20 06:43:26;;;;;;;18.98;6.03;;;;;;;4.56;94.41;100453.13;4985404;28;20065;-80
2022/02/20 06:45:53;;;;;;;21.73;6.00;;;;;;;4.63;94.81;100449.09;4983855;28;20085;-77
2022/02/20 06:48:19;;;;;;;16.75;6.07;;;;;;;4.68;95.10;100451.34;4986166;28;20171;-77
2022/02/20 06:50:46;;;;;;;19.92;6.68;;;;;;;4.79;95.17;100427.94;4990818;28;20058;-78
2022/02/20 06:53:13;;;;;;;20.52;5.85;;;;;;;4.94;95.85;100417.16;4989599;28;20414;-79
2022/02/20 06:55:39;;;;;;;16.05;5.93;;;;;;;5.02;95.70;100418.31;4989678;28;20089;-78
2022/02/20 06:58:07;;;;;;;21.20;6.18;;;;;;;5.09;96.24;100407.31;4985354;28;20588;-79
2022/02/20 07:00:34;;;;;;;20.95;5.72;;;;;;;5.30;95.80;100417.66;4980583;28;20560;-79
2022/02/20 07:03:00;;;;;;;26.38;6.43;;;;;;;5.28;95.92;100404.00;4980496;28;20105;-79
2022/02/20 07:05:27;;;;;;;18.15;6.00;;;;;;;5.31;96.22;100411.53;4980939;28;20119;-79
2022/02/20 07:07:54;;;;;;;22.27;5.80;;;;;;;5.38;96.92;100410.06;4979240;28;20062;-78
2022/02/20 07:10:20;;;;;;;17.73;5.47;;;;;;;5.49;97.14;100394.44;4979637;28;20119;-79
2022/02/20 07:12:47;;;;;;;28.58;6.68;;;;;;;5.61;97.54;100396.00;4979182;28;20047;-79
2022/02/20 07:15:15;;;;;;;23.83;5.70;;;;;;;5.80;97.65;100399.59;4977686;28;20143;-79
2022/02/20 07:17:42;;;;;;;22.23;5.20;;;;;;;6.07;97.59;100388.66;4977563;28;20137;-80
2022/02/20 07:20:09;;;;;;;20.27;4.68;;;;;;;6.21;96.81;100394.28;4976719;28;20134;-79
2022/02/20 07:22:36;;;;;;;21.58;5.20;;;;;;;6.26;96.77;100379.13;4977559;28;20110;-79
2022/02/20 07:25:04;;;;;;;22.38;4.72;;;;;;;6.31;96.49;100389.94;4977714;28;20086;-80
2022/02/20 07:27:37;;;;;;;35.92;14.07;;;;;;;6.45;96.48;100400.91;4974183;28;20528;-81
2022/02/20 07:30:04;;;;;;;35.65;14.18;;;;;;;6.51;96.23;100390.78;4977283;28;20182;-81
2022/02/20 07:32:32;;;;;;;20.15;7.20;;;;;;;6.64;95.23;100398.31;4976600;28;20548;-80
2022/02/20 07:34:59;;;;;;;21.50;7.13;;;;;;;6.77;95.31;100390.25;4977141;28;20138;-80
2022/02/20 07:37:29;;;;;;;19.58;6.38;;;;;;;6.85;94.68;100380.78;4978607;28;20085;-79
2022/02/20 07:39:57;;;;;;;20.10;6.00;;;;;;;6.87;94.76;100380.66;4977184;28;20125;-81
2022/02/20 07:42:28;;;;;;;16.77;6.97;;;;;;;6.98;94.50;100394.34;4977024;28;20050;-80
2022/02/20 07:44:55;;;;;;;14.45;4.55;;;;;;;6.94;94.80;100403.38;4958798;28;20059;-80
2022/02/20 07:47:22;;;;;;;13.60;4.53;;;;;;;6.99;94.91;100395.97;4975682;28;20093;-81
2022/02/20 07:49:51;;;;;;;10.70;3.65;;;;;;;7.10;94.72;100396.78;4943828;28;20082;-81
2022/02/20 07:52:24;;;;;;;8.38;3.90;;;;;;;7.13;94.23;100401.69;4976435;28;20050;-80
2022/02/20 07:54:51;;;;;;;11.50;4.15;;;;;;;7.17;94.55;100395.25;4976114;28;20438;-80
2022/02/20 07:57:18;;;;;;;12.57;3.65;;;;;;;7.20;94.29;100394.97;4975842;28;20082;-81
2022/02/20 07:59:44;;;;;;;8.35;3.53;;;;;;;7.23;94.68;100394.69;4976032;28;20053;-80
2022/02/20 08:02:11;;;;;;;7.05;3.85;;;;;;;7.31;94.28;100400.03;4977334;28;20085;-80
2022/02/20 08:04:38;;;;;;;10.93;3.92;;;;;;;7.36;94.20;100386.59;4976455;28;20058;-80
2022/02/20 08:07:08;;;;;;;12.23;4.20;;;;;;;7.40;94.18;100388.78;4977234;28;20057;-80
2022/02/20 08:09:35;;;;;;;8.93;3.50;;;;;;;7.52;93.54;100377.22;4977491;28;20043;-80
2022/02/20 08:12:01;;;;;;;7.70;3.28;;;;;;;7.61;93.34;100373.75;4977046;28;20050;-80
2022/02/20 08:14:28;;;;;;;9.45;2.80;;;;;;;7.65;92.64;100379.50;4974945;28;20455;-80
2022/02/20 08:16:55;;;;;;;9.75;3.55;;;;;;;7.71;92.77;100375.50;4977032;28;20114;-79
2022/02/20 08:19:22;;;;;;;7.65;3.28;;;;;;;7.74;92.67;100364.78;4975984;28;20058;-79
2022/02/20 08:21:48;;;;;;;10.93;3.17;;;;;;;7.74;92.40;100364.78;4976262;28;20110;-79
2022/02/20 08:24:16;;;;;;;10.45;3.22;;;;;;;7.75;93.08;100363.84;4974923;28;20134;-80
2022/02/20 08:26:45;;;;;;;10.85;3.60;;;;;;;7.78;93.14;100377.38;4976103;28;20054;-79
2022/02/20 08:29:12;;;;;;;8.85;3.13;;;;;;;7.91;91.92;100351.00;4975509;28;20058;-80
2022/02/20 08:31:39;;;;;;;12.07;3.78;;;;;;;7.96;92.16;100354.81;4977396;28;20049;-80
2022/02/20 08:34:05;;;;;;;6.35;3.03;;;;;;;7.96;92.31;100339.19;4975635;28;20047;-80
2022/02/20 08:36:32;;;;;;;10.93;2.88;;;;;;;7.97;92.52;100340.84;4976243;28;20461;-79
2022/02/20 08:38:59;;;;;;;9.95;3.47;;;;;;;7.99;92.37;100356.31;5007606;23;20078;-83
2022/02/20 08:41:27;;;;;;;8.02;3.05;;;;;;;7.98;92.34;100336.44;4999361;28;20046;-82
2022/02/20 08:43:53;;;;;;;6.25;2.58;;;;;;;8.00;92.76;100350.16;4999183;28;20421;-83
2022/02/20 08:46:20;;;;;;;5.60;2.95;;;;;;;8.10;92.32;100344.84;4999707;28;20362;-83
2022/02/20 08:48:46;;;;;;;6.28;2.67;;;;;;;8.13;92.15;100350.59;4986021;28;20060;-83
2022/02/20 08:51:15;;;;;;;7.65;2.90;;;;;;;8.10;92.47;100324.81;4981835;28;20105;-84
2022/02/20 08:53:41;;;;;;;5.95;2.63;;;;;;;8.20;92.11;100330.78;4981779;28;20082;-85
2022/02/20 08:56:08;;;;;;;5.80;2.72;;;;;;;8.24;91.63;100323.50;4980430;28;20117;-85
2022/02/20 08:58:37;;;;;;;5.28;2.42;;;;;;;8.34;91.41;100344.31;4977583;28;20251;-85
2022/02/20 09:01:04;;;;;;;5.85;2.78;;;;;;;8.32;91.19;100319.22;4983327;28;20141;-82
2022/02/20 09:03:31;;;;;;;4.88;2.67;;;;;;;8.43;90.85;100333.00;4994460;28;20051;-85
2022/02/20 09:05:58;;;;;;;8.48;2.45;;;;;;;8.47;90.39;100321.31;4993374;28;20050;-83
2022/02/20 09:08:24;;;;;;;5.68;2.50;;;;;;;8.54;90.20;100322.31;4987702;28;20073;-84
2022/02/20 09:10:51;;;;;;;5.57;2.45;;;;;;;8.56;90.16;100333.41;4980381;28;20536;-85
2022/02/20 09:13:18;;;;;;;8.00;2.45;;;;;;;8.66;89.46;100331.56;4978384;28;20050;-86
2022/02/20 09:15:46;;;;;;;5.90;2.13;;;;;;;8.85;89.35;100326.16;4977951;28;20050;-85
2022/02/20 09:18:13;;;;;;;3.83;2.25;;;;;;;8.88;88.41;100331.09;4978771;28;20058;-85
2022/02/20 09:20:40;;;;;;;3.95;1.98;;;;;;;8.89;88.15;100337.13;4978729;28;20051;-83
2022/02/20 09:23:06;;;;;;;6.32;2.58;;;;;;;8.97;88.02;100327.56;4979064;28;20097;-83
2022/02/20 09:25:33;;;;;;;3.83;1.55;;;;;;;9.03;87.09;100338.34;4978579;28;20101;-84
2022/02/20 09:28:00;;;;;;;5.43;1.83;;;;;;;9.00;87.23;100326.41;4978576;28;20078;-85
2022/02/20 09:30:26;;;;;;;5.35;1.88;;;;;;;9.04;87.08;100313.88;4981110;28;20043;-84
2022/02/20 09:32:55;;;;;;;5.75;1.98;;;;;;;9.06;86.75;100323.19;4984164;28;20046;-83
2022/02/20 09:35:23;;;;;;;3.65;1.92;;;;;;;9.13;86.56;100308.56;4984236;28;20070;-84
2022/02/20 09:37:49;;;;;;;6.60;3.03;;;;;;;9.24;86.29;100318.75;4985060;28;20055;-82
2022/02/20 09:40:16;;;;;;;7.45;2.53;;;;;;;9.33;85.83;100332.66;4984870;28;20160;-85
2022/02/20 09:42:43;;;;;;;5.32;2.40;;;;;;;9.35;85.68;100302.00;4984899;28;20081;-84
2022/02/20 09:45:09;;;;;;;5.70;2.35;;;;;;;9.39;85.67;100326.81;4984402;28;20038;-85
2022/02/20 09:47:39;;;;;;;5.45;2.20;;;;;;;9.37;86.10;100323.53;4983044;28;20145;-84
2022/02/20 09:50:08;;;;;;;6.88;2.35;;;;;;;9.41;85.99;100316.22;4984200;28;20237;-86
2022/02/20 09:52:35;;;;;;;4.53;2.25;;;;;;;9.35;85.89;100324.69;4989735;28;20129;-84
2022/02/20 09:55:02;;;;;;;2.92;1.95;;;;;;;9.32;85.94;100326.63;5007952;28;20058;-83
2022/02/20 09:57:28;;;;;;;4.90;2.47;;;;;;;9.32;86.22;100323.19;5005255;28;20141;-83
2022/02/20 09:59:55;;;;;;;7.68;2.90;;;;;;;9.33;86.59;100314.38;4998406;28;20058;-81
2022/02/20 10:02:25;;;;;;;5.55;2.80;;;;;;;9.28;86.67;100300.97;5002772;28;20038;-81
2022/02/20 10:04:53;;;;;;;5.38;2.25;;;;;;;9.22;87.05;100286.75;5012438;28;20049;-81
2022/02/20 10:07:30;;;;;;;6.43;2.80;;;;;;;9.34;86.89;100302.97;5018722;28;20031;-82
2022/02/20 10:09:59;;;;;;;5.20;2.63;;;;;;;9.41;86.48;100296.16;5004315;28;20074;-84
2022/02/20 10:12:27;;;;;;;5.95;2.25;;;;;;;9.43;86.33;100320.31;4987662;28;20055;-85
2022/02/20 10:14:54;;;;;;;5.95;2.80;;;;;;;9.50;86.32;100308.25;4987046;28;20062;-84
2022/02/20 10:17:25;;;;;;;5.70;2.60;;;;;;;9.54;86.04;100290.47;4989811;28;20137;-84
2022/02/20 10:19:58;;;;;;;7.85;2.55;;;;;;;9.65;85.52;100298.03;4986330;28;20074;-86
2022/02/20 10:22:33;;;;;;;8.13;2.85;;;;;;;9.78;85.16;100302.81;4989104;28;20093;-86
2022/02/20 10:25:01;;;;;;;9.85;3.08;;;;;;;9.83;84.87;100311.81;4989880;28;20090;-83
2022/02/20 10:27:28;;;;;;;6.78;2.85;;;;;;;9.86;84.45;100295.00;5007351;28;20058;-84
2022/02/20 10:30:11;;;;;;;6.70;2.50;;;;;;;9.82;84.43;100285.84;5007249;28;20599;-84
2022/02/20 10:32:37;;;;;;;9.63;2.47;;;;;;;9.81;84.24;100295.47;4987608;28;20054;-84
2022/02/20 10:35:08;;;;;;;5.38;2.72;;;;;;;9.77;84.65;100307.22;4988559;28;20082;-83
2022/02/20 10:37:36;;;;;;;5.90;2.33;;;;;;;9.88;84.62;100293.88;4988106;28;20074;-83
2022/02/20 10:40:23;;;;;;;5.72;2.15;;;;;;;9.98;83.95;100304.16;4991299;28;20081;-83
2022/02/20 10:42:50;;;;;;;4.03;1.92;;;;;;;9.96;84.14;100303.50;4990146;28;20105;-85
2022/02/20 10:45:24;;;;;;;4.03;2.30;;;;;;;9.94;85.02;100302.84;4978404;28;20050;-83
2022/02/20 10:47:51;;;;;;;4.47;2.05;;;;;;;9.83;84.36;100287.47;5003488;28;20050;-83
2022/02/20 10:50:21;;;;;;;2.38;2.00;;;;;;;9.69;84.98;100288.06;4985668;28;20397;-82
2022/02/20 10:53:08;;;;;;;6.55;2.03;;;;;;;9.82;84.82;100291.06;4980817;28;20103;-84
2022/02/20 10:55:40;;;;;;;3.40;1.85;;;;;;;9.86;84.76;100290.59;4982447;28;20066;-85
2022/02/20 10:58:12;;;;;;;4.85;2.25;;;;;;;9.88;85.23;100298.28;4979995;28;20050;-85
2022/02/20 11:00:46;;;;;;;;;;;;;;;10.03;84.43;100285.38;4979155;28;20089;-85
2022/02/20 11:03:13;;;;;;;6.28;2.17;;;;;;;10.13;83.71;100294.72;4979306;28;19922;-84
2022/02/20 11:05:40;;;;;;;5.60;2.28;;;;;;;10.20;83.96;100294.91;4980332;28;20138;-84
2022/02/20 11:08:10;;;;;;;5.38;2.28;;;;;;;10.23;84.12;100298.03;4989961;28;20055;-85
2022/02/20 11:10:38;;;;;;;5.15;2.35;;;;;;;10.30;82.90;100292.97;4982597;28;20066;-86
2022/02/20 11:13:06;;;;;;;5.40;2.40;;;;;;;10.34;83.35;100315.22;4982948;28;20425;-85
2022/02/20 11:15:34;;;;;;;5.63;2.50;;;;;;;10.29;83.48;100286.94;4982473;28;20112;-85
2022/02/20 11:18:04;;;;;;;3.70;1.80;;;;;;;10.23;83.39;100313.72;4980986;28;20421;-84
2022/02/20 11:20:33;;;;;;;3.85;1.80;;;;;;;10.21;83.68;100294.75;4978853;28;20134;-84
2022/02/20 11:23:02;;;;;;;5.57;2.40;;;;;;;10.18;83.73;100300.28;4978662;28;20081;-83
2022/02/20 11:25:32;;;;;;;5.53;2.47;;;;;;;10.09;83.15;100296.00;4979044;28;20111;-84
2022/02/20 11:28:00;;;;;;;6.90;2.60;;;;;;;10.01;84.05;100276.88;4980289;28;20058;-85